sensor_id;sensor_type;location;lat;lon;timestamp;pressure;altitude;pressure_sealevel;temperature;humidity
53546;BME280;39432;51.902;10.844;2023-02-04T00:00:45;100434.41;;;5.13;100.00
53546;BME280;39432;51.902;10.844;2023-02-04T00:03:16;100446.94;;;5.21;100.00
53546;BME280;39432;51.902;10.844;2023-02-04T00:05:46;100457.56;;;5.16;100.00
53546;BME280;39432;51.902;10.844;2023-02-04T00:08:18;100455.31;;;5.26;100.00
53546;BME280;39432;51.902;10.844;2023-02-04T00:10:48;100456.91;;;5.07;100.00
53546;BME280;39432;51.902;10.844;2023-02-04T00:13:17;100460.47;;;5.08;100.00
53546;BME280;39432;51.902;10.844;2023-02-04T00:15:47;100461.88;;;5.03;100.00
53546;BME280;39432;51.902;10.844;2023-02-04T00:18:17;100469.47;;;5.15;100.00
53546;BME280;39432;51.902;10.844;2023-02-04T00:20:47;100476.09;;;5.06;100.00
53546;BME280;39432;51.902;10.844;2023-02-04T00:23:20;100489.84;;;5.04;100.00
53546;BME280;39432;51.902;10.844;2023-02-04T00:25:49;100498.19;;;5.02;100.00
53546;BME280;39432;51.902;10.844;2023-02-04T00:28:19;100509.38;;;4.93;100.00
53546;BME280;39432;51.902;10.844;2023-02-04T00:30:48;100545.63;;;4.57;100.00
53546;BME280;39432;51.902;10.844;2023-02-04T00:33:18;100549.63;;;3.82;100.00
53546;BME280;39432;51.902;10.844;2023-02-04T00:35:47;100566.84;;;3.60;100.00
53546;BME280;39432;51.902;10.844;2023-02-04T00:38:22;100571.50;;;3.51;100.00
53546;BME280;39432;51.902;10.844;2023-02-04T00:40:52;100585.31;;;3.41;100.00
53546;BME280;39432;51.902;10.844;2023-02-04T00:43:21;100591.09;;;3.38;100.00
53546;BME280;39432;51.902;10.844;2023-02-04T00:45:51;100602.00;;;3.45;100.00
53546;BME280;39432;51.902;10.844;2023-02-04T00:48:21;100598.94;;;3.48;100.00
53546;BME280;39432;51.902;10.844;2023-02-04T00:50:52;100608.34;;;3.37;100.00
53546;BME280;39432;51.902;10.844;2023-02-04T00:53:24;100607.06;;;3.48;100.00
53546;BME280;39432;51.902;10.844;2023-02-04T00:55:56;100615.06;;;3.56;100.00
53546;BME280;39432;51.902;10.844;2023-02-04T00:58:25;100627.13;;;3.54;100.00
53546;BME280;39432;51.902;10.844;2023-02-04T01:00:55;100633.84;;;3.58;100.00
53546;BME280;39432;51.902;10.844;2023-02-04T01:03:25;100638.84;;;3.61;100.00
53546;BME280;39432;51.902;10.844;2023-02-04T01:05:54;100651.25;;;3.55;100.00
53546;BME280;39432;51.902;10.844;2023-02-04T01:08:26;100652.38;;;3.61;100.00
53546;BME280;39432;51.902;10.844;2023-02-04T01:10:56;100657.06;;;3.52;100.00
53546;BME280;39432;51.902;10.844;2023-02-04T01:13:26;100670.03;;;3.72;100.00
53546;BME280;39432;51.902;10.844;2023-02-04T01:15:55;100670.00;;;3.57;100.00
53546;BME280;39432;51.902;10.844;2023-02-04T01:18:25;100680.13;;;3.63;100.00
53546;BME280;39432;51.902;10.844;2023-02-04T01:20:56;100681.56;;;3.51;100.00
53546;BME280;39432;51.902;10.844;2023-02-04T01:23:28;100684.84;;;3.61;100.00
53546;BME280;39432;51.902;10.844;2023-02-04T01:25:57;100689.81;;;3.72;100.00
53546;BME280;39432;51.902;10.844;2023-02-04T01:28:27;100698.97;;;3.71;100.00
53546;BME280;39432;51.902;10.844;2023-02-04T01:30:57;100696.81;;;3.81;100.00
53546;BME280;39432;51.902;10.844;2023-02-04T01:33:27;100703.44;;;3.64;100.00
53546;BME280;39432;51.902;10.844;2023-02-04T01:35:56;100713.13;;;3.58;100.00
53546;BME280;39432;51.902;10.844;2023-02-04T01:38:30;100719.84;;;3.77;100.00
53546;BME280;39432;51.902;10.844;2023-02-04T01:41:00;100721.50;;;3.49;100.00
53546;BME280;39432;51.902;10.844;2023-02-04T01:43:31;100728.88;;;3.55;100.00
53546;BME280;39432;51.902;10.844;2023-02-04T01:46:01;100734.88;;;3.65;100.00
53546;BME280;39432;51.902;10.844;2023-02-04T01:48:31;100735.75;;;3.80;100.00
53546;BME280;39432;51.902;10.844;2023-02-04T01:51:04;100745.53;;;3.81;100.00
53546;BME280;39432;51.902;10.844;2023-02-04T01:53:37;100757.22;;;3.44;100.00
53546;BME280;39432;51.902;10.844;2023-02-04T01:56:14;100754.66;;;3.65;100.00
53546;BME280;39432;51.902;10.844;2023-02-04T01:58:44;100761.13;;;3.79;100.00
53546;BME280;39432;51.902;10.844;2023-02-04T02:01:31;100773.91;;;4.00;100.00
53546;BME280;39432;51.902;10.844;2023-02-04T02:04:01;100774.00;;;3.77;100.00
53546;BME280;39432;51.902;10.844;2023-02-04T02:06:32;100788.75;;;3.89;100.00
53546;BME280;39432;51.902;10.844;2023-02-04T02:09:04;100775.38;;;3.73;100.00
53546;BME280;39432;51.902;10.844;2023-02-04T02:11:34;100794.59;;;3.40;100.00
53546;BME280;39432;51.902;10.844;2023-02-04T02:14:04;100794.97;;;3.37;100.00
53546;BME280;39432;51.902;10.844;2023-02-04T02:16:33;100795.34;;;3.11;100.00
53546;BME280;39432;51.902;10.844;2023-02-04T02:19:04;100804.34;;;3.50;100.00
53546;BME280;39432;51.902;10.844;2023-02-04T02:21:39;100807.25;;;3.25;100.00
53546;BME280;39432;51.902;10.844;2023-02-04T02:24:28;100819.69;;;3.34;100.00
53546;BME280;39432;51.902;10.844;2023-02-04T02:27:01;100830.06;;;3.46;100.00
53546;BME280;39432;51.902;10.844;2023-02-04T02:29:32;100842.47;;;3.40;100.00
53546;BME280;39432;51.902;10.844;2023-02-04T02:32:03;100841.88;;;3.53;100.00
53546;BME280;39432;51.902;10.844;2023-02-04T02:34:33;100852.81;;;3.59;100.00
53546;BME280;39432;51.902;10.844;2023-02-04T02:37:06;100851.25;;;3.42;100.00
53546;BME280;39432;51.902;10.844;2023-02-04T02:39:41;100859.41;;;3.57;100.00
53546;BME280;39432;51.902;10.844;2023-02-04T02:42:14;100864.25;;;3.47;100.00
53546;BME280;39432;51.902;10.844;2023-02-04T02:44:45;100857.72;;;3.33;100.00
53546;BME280;39432;51.902;10.844;2023-02-04T02:47:16;100866.66;;;3.41;100.00
53546;BME280;39432;51.902;10.844;2023-02-04T02:49:49;100862.31;;;3.32;100.00
53546;BME280;39432;51.902;10.844;2023-02-04T02:52:19;100868.66;;;3.16;100.00
53546;BME280;39432;51.902;10.844;2023-02-04T02:54:52;100872.97;;;3.03;100.00
53546;BME280;39432;51.902;10.844;2023-02-04T02:57:22;100877.03;;;3.30;100.00
53546;BME280;39432;51.902;10.844;2023-02-04T02:59:51;100883.28;;;3.30;100.00
53546;BME280;39432;51.902;10.844;2023-02-04T03:02:22;100882.88;;;3.41;100.00
53546;BME280;39432;51.902;10.844;2023-02-04T03:04:55;100896.13;;;3.28;100.00
53546;BME280;39432;51.902;10.844;2023-02-04T03:07:29;100906.06;;;3.36;100.00
53546;BME280;39432;51.902;10.844;2023-02-04T03:10:01;100906.00;;;3.13;100.00
53546;BME280;39432;51.902;10.844;2023-02-04T03:12:31;100911.03;;;3.24;100.00
53546;BME280;39432;51.902;10.844;2023-02-04T03:15:01;100912.44;;;3.12;100.00
53546;BME280;39432;51.902;10.844;2023-02-04T03:17:31;100931.09;;;2.99;100.00
53546;BME280;39432;51.902;10.844;2023-02-04T03:20:02;100935.66;;;2.98;100.00
53546;BME280;39432;51.902;10.844;2023-02-04T03:22:32;100940.22;;;2.98;100.00
53546;BME280;39432;51.902;10.844;2023-02-04T03:25:05;100945.91;;;3.11;100.00
53546;BME280;39432;51.902;10.844;2023-02-04T03:27:35;100943.31;;;2.86;100.00
53546;BME280;39432;51.902;10.844;2023-02-04T03:30:06;100949.03;;;2.92;100.00
53546;BME280;39432;51.902;10.844;2023-02-04T03:32:36;100961.16;;;3.04;100.00
53546;BME280;39432;51.902;10.844;2023-02-04T03:35:07;100962.19;;;2.95;100.00
53546;BME280;39432;51.902;10.844;2023-02-04T03:37:37;100970.00;;;2.81;100.00
53546;BME280;39432;51.902;10.844;2023-02-04T03:40:10;100980.31;;;2.86;100.00
53546;BME280;39432;51.902;10.844;2023-02-04T03:42:40;100989.25;;;2.78;100.00
53546;BME280;39432;51.902;10.844;2023-02-04T03:45:10;100994.34;;;2.81;100.00
53546;BME280;39432;51.902;10.844;2023-02-04T03:47:39;101005.84;;;2.67;100.00
53546;BME280;39432;51.902;10.844;2023-02-04T03:50:09;101015.66;;;2.52;100.00
53546;BME280;39432;51.902;10.844;2023-02-04T03:52:40;101021.41;;;2.65;100.00
53546;BME280;39432;51.902;10.844;2023-02-04T03:55:13;101023.06;;;2.58;100.00
53546;BME280;39432;51.902;10.844;2023-02-04T03:57:42;101032.84;;;2.67;100.00
53546;BME280;39432;51.902;10.844;2023-02-04T04:00:13;101034.19;;;2.79;100.00
53546;BME280;39432;51.902;10.844;2023-02-04T04:02:42;101031.78;;;3.01;100.00
53546;BME280;39432;51.902;10.844;2023-02-04T04:05:12;101031.41;;;3.12;100.00
53546;BME280;39432;51.902;10.844;2023-02-04T04:07:42;101049.34;;;2.97;100.00
53546;BME280;39432;51.902;10.844;2023-02-04T04:10:14;101052.41;;;2.94;100.00
53546;BME280;39432;51.902;10.844;2023-02-04T04:12:44;101050.75;;;2.76;100.00
53546;BME280;39432;51.902;10.844;2023-02-04T04:15:14;101058.47;;;2.96;100.00
53546;BME280;39432;51.902;10.844;2023-02-04T04:17:44;101060.16;;;2.97;100.00
53546;BME280;39432;51.902;10.844;2023-02-04T04:20:13;101059.38;;;2.39;100.00
53546;BME280;39432;51.902;10.844;2023-02-04T04:22:43;101069.19;;;2.64;100.00
53546;BME280;39432;51.902;10.844;2023-02-04T04:25:15;101078.47;;;2.54;100.00
53546;BME280;39432;51.902;10.844;2023-02-04T04:27:45;101074.25;;;2.43;100.00
53546;BME280;39432;51.902;10.844;2023-02-04T04:30:15;101087.41;;;2.54;100.00
53546;BME280;39432;51.902;10.844;2023-02-04T04:32:45;101096.34;;;2.87;100.00
53546;BME280;39432;51.902;10.844;2023-02-04T04:35:15;101104.09;;;2.58;100.00
53546;BME280;39432;51.902;10.844;2023-02-04T04:37:44;101098.06;;;2.80;100.00
53546;BME280;39432;51.902;10.844;2023-02-04T04:40:17;101101.00;;;3.26;100.00
53546;BME280;39432;51.902;10.844;2023-02-04T04:42:46;101114.91;;;2.33;100.00
53546;BME280;39432;51.902;10.844;2023-02-04T04:45:16;101125.38;;;2.28;100.00
53546;BME280;39432;51.902;10.844;2023-02-04T04:47:46;101120.53;;;1.81;100.00
53546;BME280;39432;51.902;10.844;2023-02-04T04:50:16;101143.00;;;1.98;100.00
53546;BME280;39432;51.902;10.844;2023-02-04T04:52:45;101141.88;;;2.09;100.00
53546;BME280;39432;51.902;10.844;2023-02-04T04:55:17;101153.00;;;2.14;100.00
53546;BME280;39432;51.902;10.844;2023-02-04T04:57:47;101159.03;;;2.75;100.00
53546;BME280;39432;51.902;10.844;2023-02-04T05:00:19;101164.72;;;2.31;100.00
53546;BME280;39432;51.902;10.844;2023-02-04T05:02:49;101156.13;;;2.52;100.00
53546;BME280;39432;51.902;10.844;2023-02-04T05:05:19;101166.56;;;2.47;100.00
53546;BME280;39432;51.902;10.844;2023-02-04T05:07:48;101164.22;;;2.44;100.00
53546;BME280;39432;51.902;10.844;2023-02-04T05:10:21;101171.63;;;2.42;100.00
53546;BME280;39432;51.902;10.844;2023-02-04T05:12:51;101175.03;;;2.52;100.00
53546;BME280;39432;51.902;10.844;2023-02-04T05:15:21;101168.28;;;2.56;100.00
53546;BME280;39432;51.902;10.844;2023-02-04T05:17:50;101179.81;;;2.82;100.00
53546;BME280;39432;51.902;10.844;2023-02-04T05:20:20;101177.44;;;2.87;100.00
53546;BME280;39432;51.902;10.844;2023-02-04T05:22:49;101178.28;;;2.96;100.00
53546;BME280;39432;51.902;10.844;2023-02-04T05:25:24;101187.06;;;2.98;100.00
53546;BME280;39432;51.902;10.844;2023-02-04T05:27:53;101189.63;;;2.92;100.00
53546;BME280;39432;51.902;10.844;2023-02-04T05:30:23;101195.00;;;2.75;100.00
53546;BME280;39432;51.902;10.844;2023-02-04T05:32:53;101198.72;;;2.99;100.00
53546;BME280;39432;51.902;10.844;2023-02-04T05:35:23;101201.75;;;2.96;100.00
53546;BME280;39432;51.902;10.844;2023-02-04T05:37:52;101209.53;;;3.15;100.00
53546;BME280;39432;51.902;10.844;2023-02-04T05:40:25;101209.88;;;3.20;100.00
53546;BME280;39432;51.902;10.844;2023-02-04T05:42:54;101211.38;;;3.39;100.00
53546;BME280;39432;51.902;10.844;2023-02-04T05:45:24;101212.72;;;3.35;100.00
53546;BME280;39432;51.902;10.844;2023-02-04T05:47:54;101213.94;;;3.16;100.00
53546;BME280;39432;51.902;10.844;2023-02-04T05:50:23;101208.84;;;3.13;100.00
53546;BME280;39432;51.902;10.844;2023-02-04T05:53:07;101211.25;;;3.24;100.00
53546;BME280;39432;51.902;10.844;2023-02-04T05:55:39;101198.53;;;2.84;100.00
53546;BME280;39432;51.902;10.844;2023-02-04T05:58:08;101216.66;;;3.24;100.00
53546;BME280;39432;51.902;10.844;2023-02-04T06:00:38;101210.81;;;2.46;100.00
53546;BME280;39432;51.902;10.844;2023-02-04T06:03:08;101222.97;;;2.50;100.00
53546;BME280;39432;51.902;10.844;2023-02-04T06:05:39;101227.44;;;3.40;100.00
53546;BME280;39432;51.902;10.844;2023-02-04T06:08:10;101230.06;;;3.81;100.00
53546;BME280;39432;51.902;10.844;2023-02-04T06:10:44;101232.19;;;3.06;100.00
53546;BME280;39432;51.902;10.844;2023-02-04T06:13:16;101235.34;;;2.18;100.00
53546;BME280;39432;51.902;10.844;2023-02-04T06:15:46;101241.59;;;2.19;100.00
53546;BME280;39432;51.902;10.844;2023-02-04T06:18:16;101249.44;;;1.96;100.00
53546;BME280;39432;51.902;10.844;2023-02-04T06:20:45;101260.75;;;1.99;100.00
53546;BME280;39432;51.902;10.844;2023-02-04T06:23:15;101269.69;;;2.34;100.00
53546;BME280;39432;51.902;10.844;2023-02-04T06:25:47;101280.06;;;2.63;100.00
53546;BME280;39432;51.902;10.844;2023-02-04T06:28:17;101282.56;;;3.15;100.00
53546;BME280;39432;51.902;10.844;2023-02-04T06:30:46;101286.28;;;3.14;100.00
53546;BME280;39432;51.902;10.844;2023-02-04T06:33:16;101290.66;;;3.23;100.00
53546;BME280;39432;51.902;10.844;2023-02-04T06:35:47;101299.75;;;2.89;100.00
53546;BME280;39432;51.902;10.844;2023-02-04T06:38:16;101298.78;;;3.15;100.00
53546;BME280;39432;51.902;10.844;2023-02-04T06:40:48;101292.25;;;2.59;100.00
53546;BME280;39432;51.902;10.844;2023-02-04T06:43:19;101305.03;;;2.57;100.00
53546;BME280;39432;51.902;10.844;2023-02-04T06:45:51;101309.19;;;2.85;100.00
53546;BME280;39432;51.902;10.844;2023-02-04T06:48:21;101316.69;;;3.16;100.00
53546;BME280;39432;51.902;10.844;2023-02-04T06:50:50;101312.19;;;2.74;100.00
53546;BME280;39432;51.902;10.844;2023-02-04T06:53:20;101316.25;;;2.70;100.00
53546;BME280;39432;51.902;10.844;2023-02-04T06:55:52;101315.59;;;2.76;100.00
53546;BME280;39432;51.902;10.844;2023-02-04T06:58:21;101324.81;;;2.23;100.00
53546;BME280;39432;51.902;10.844;2023-02-04T07:00:51;101333.28;;;2.28;100.00
53546;BME280;39432;51.902;10.844;2023-02-04T07:03:21;101330.88;;;2.17;100.00
53546;BME280;39432;51.902;10.844;2023-02-04T07:05:50;101323.34;;;2.71;100.00
53546;BME280;39432;51.902;10.844;2023-02-04T07:08:20;101323.88;;;2.75;100.00
53546;BME280;39432;51.902;10.844;2023-02-04T07:10:52;101330.75;;;2.61;100.00
53546;BME280;39432;51.902;10.844;2023-02-04T07:13:22;101342.28;;;2.79;100.00
53546;BME280;39432;51.902;10.844;2023-02-04T07:15:51;101331.34;;;2.47;100.00
53546;BME280;39432;51.902;10.844;2023-02-04T07:18:21;101341.84;;;2.50;100.00
53546;BME280;39432;51.902;10.844;2023-02-04T07:20:50;101358.03;;;1.90;100.00
53546;BME280;39432;51.902;10.844;2023-02-04T07:23:20;101368.78;;;1.81;100.00
53546;BME280;39432;51.902;10.844;2023-02-04T07:25:53;101370.31;;;1.66;100.00
53546;BME280;39432;51.902;10.844;2023-02-04T07:28:25;101383.09;;;1.82;100.00
53546;BME280;39432;51.902;10.844;2023-02-04T07:30:55;101378.19;;;2.29;100.00
53546;BME280;39432;51.902;10.844;2023-02-04T07:33:25;101382.53;;;2.22;100.00
53546;BME280;39432;51.902;10.844;2023-02-04T07:35:54;101385.06;;;1.98;100.00
53546;BME280;39432;51.902;10.844;2023-02-04T07:38:24;101381.69;;;1.96;100.00
53546;BME280;39432;51.902;10.844;2023-02-04T07:40:56;101390.66;;;1.78;100.00
53546;BME280;39432;51.902;10.844;2023-02-04T07:43:26;101398.31;;;2.09;100.00
53546;BME280;39432;51.902;10.844;2023-02-04T07:45:56;101399.41;;;2.24;100.00
53546;BME280;39432;51.902;10.844;2023-02-04T07:48:25;101411.78;;;2.61;100.00
53546;BME280;39432;51.902;10.844;2023-02-04T07:50:55;101405.38;;;2.62;100.00
53546;BME280;39432;51.902;10.844;2023-02-04T07:53:24;101414.38;;;3.13;100.00
53546;BME280;39432;51.902;10.844;2023-02-04T07:55:57;101416.66;;;2.57;100.00
53546;BME280;39432;51.902;10.844;2023-02-04T07:58:26;101420.38;;;2.90;100.00
53546;BME280;39432;51.902;10.844;2023-02-04T08:00:56;101429.66;;;3.30;100.00
53546;BME280;39432;51.902;10.844;2023-02-04T08:03:27;101426.75;;;3.24;100.00
53546;BME280;39432;51.902;10.844;2023-02-04T08:05:58;101434.47;;;3.85;100.00
53546;BME280;39432;51.902;10.844;2023-02-04T08:08:28;101445.81;;;3.97;100.00
53546;BME280;39432;51.902;10.844;2023-02-04T08:11:00;101433.28;;;3.63;100.00
53546;BME280;39432;51.902;10.844;2023-02-04T08:13:29;101442.22;;;3.56;100.00
53546;BME280;39432;51.902;10.844;2023-02-04T08:15:59;101436.00;;;4.04;100.00
53546;BME280;39432;51.902;10.844;2023-02-04T08:18:29;101430.38;;;3.73;100.00
53546;BME280;39432;51.902;10.844;2023-02-04T08:20:58;101438.38;;;3.99;100.00
53546;BME280;39432;51.902;10.844;2023-02-04T08:23:30;101439.88;;;4.26;100.00
53546;BME280;39432;51.902;10.844;2023-02-04T08:26:02;101441.22;;;4.22;100.00
53546;BME280;39432;51.902;10.844;2023-02-04T08:28:32;101435.81;;;4.30;100.00
53546;BME280;39432;51.902;10.844;2023-02-04T08:31:02;101447.13;;;4.42;100.00
53546;BME280;39432;51.902;10.844;2023-02-04T08:33:32;101441.91;;;4.16;100.00
53546;BME280;39432;51.902;10.844;2023-02-04T08:36:02;101451.56;;;4.27;100.00
53546;BME280;39432;51.902;10.844;2023-02-04T08:38:32;101458.13;;;4.57;100.00
53546;BME280;39432;51.902;10.844;2023-02-04T08:41:05;101456.97;;;4.35;100.00
53546;BME280;39432;51.902;10.844;2023-02-04T08:43:34;101454.72;;;4.55;100.00
53546;BME280;39432;51.902;10.844;2023-02-04T08:46:04;101465.91;;;4.68;100.00
53546;BME280;39432;51.902;10.844;2023-02-04T08:48:34;101472.31;;;4.75;100.00
53546;BME280;39432;51.902;10.844;2023-02-04T08:51:04;101469.59;;;4.67;100.00
53546;BME280;39432;51.902;10.844;2023-02-04T08:53:34;101467.63;;;4.53;100.00
53546;BME280;39432;51.902;10.844;2023-02-04T08:56:08;101470.97;;;4.71;100.00
53546;BME280;39432;51.902;10.844;2023-02-04T08:58:42;101474.44;;;4.08;100.00
53546;BME280;39432;51.902;10.844;2023-02-04T09:01:12;101473.72;;;4.63;100.00
53546;BME280;39432;51.902;10.844;2023-02-04T09:03:42;101476.59;;;4.53;100.00
53546;BME280;39432;51.902;10.844;2023-02-04T09:06:12;101473.22;;;3.19;100.00
53546;BME280;39432;51.902;10.844;2023-02-04T09:08:41;101486.72;;;3.11;100.00
53546;BME280;39432;51.902;10.844;2023-02-04T09:11:14;101485.22;;;3.16;100.00
53546;BME280;39432;51.902;10.844;2023-02-04T09:13:43;101494.84;;;3.69;100.00
53546;BME280;39432;51.902;10.844;2023-02-04T09:16:13;101492.78;;;3.13;100.00
53546;BME280;39432;51.902;10.844;2023-02-04T09:18:43;101500.41;;;3.52;100.00
53546;BME280;39432;51.902;10.844;2023-02-04T09:21:13;101502.25;;;2.75;100.00
53546;BME280;39432;51.902;10.844;2023-02-04T09:23:43;101508.31;;;3.03;100.00
53546;BME280;39432;51.902;10.844;2023-02-04T09:26:16;101504.69;;;2.86;100.00
53546;BME280;39432;51.902;10.844;2023-02-04T09:28:46;101505.69;;;3.19;100.00
53546;BME280;39432;51.902;10.844;2023-02-04T09:31:15;101514.41;;;3.05;100.00
53546;BME280;39432;51.902;10.844;2023-02-04T09:33:45;101528.50;;;2.90;100.00
53546;BME280;39432;51.902;10.844;2023-02-04T09:36:15;101520.09;;;3.86;100.00
53546;BME280;39432;51.902;10.844;2023-02-04T09:38:44;101510.75;;;3.64;100.00
53546;BME280;39432;51.902;10.844;2023-02-04T09:41:16;101511.91;;;3.62;100.00
53546;BME280;39432;51.902;10.844;2023-02-04T09:43:46;101520.44;;;3.91;100.00
53546;BME280;39432;51.902;10.844;2023-02-04T09:46:19;101522.50;;;3.97;100.00
53546;BME280;39432;51.902;10.844;2023-02-04T09:48:50;101527.13;;;3.55;100.00
53546;BME280;39432;51.902;10.844;2023-02-04T09:51:22;101518.44;;;4.10;100.00
53546;BME280;39432;51.902;10.844;2023-02-04T09:53:53;101525.38;;;4.20;100.00
53546;BME280;39432;51.902;10.844;2023-02-04T09:56:26;101527.41;;;3.35;100.00
53546;BME280;39432;51.902;10.844;2023-02-04T09:58:56;101524.50;;;3.79;100.00
53546;BME280;39432;51.902;10.844;2023-02-04T10:01:26;101535.47;;;3.27;100.00
53546;BME280;39432;51.902;10.844;2023-02-04T10:04:00;101531.66;;;4.45;100.00
53546;BME280;39432;51.902;10.844;2023-02-04T10:06:30;101529.06;;;5.40;100.00
53546;BME280;39432;51.902;10.844;2023-02-04T10:09:00;101533.34;;;4.55;100.00
53546;BME280;39432;51.902;10.844;2023-02-04T10:11:35;101529.47;;;5.21;100.00
53546;BME280;39432;51.902;10.844;2023-02-04T10:14:09;101526.53;;;3.85;100.00
53546;BME280;39432;51.902;10.844;2023-02-04T10:16:41;101537.91;;;4.38;100.00
53546;BME280;39432;51.902;10.844;2023-02-04T10:19:13;101532.81;;;4.75;100.00
53546;BME280;39432;51.902;10.844;2023-02-04T10:21:44;101540.06;;;3.85;100.00
53546;BME280;39432;51.902;10.844;2023-02-04T10:24:16;101547.56;;;4.32;100.00
53546;BME280;39432;51.902;10.844;2023-02-04T10:26:49;101546.88;;;4.38;100.00
53546;BME280;39432;51.902;10.844;2023-02-04T10:29:21;101547.56;;;4.08;100.00
53546;BME280;39432;51.902;10.844;2023-02-04T10:31:52;101545.56;;;4.34;100.00
53546;BME280;39432;51.902;10.844;2023-02-04T10:34:23;101546.22;;;4.69;100.00
53546;BME280;39432;51.902;10.844;2023-02-04T10:36:55;101532.31;;;4.15;100.00
53546;BME280;39432;51.902;10.844;2023-02-04T10:39:28;101534.13;;;3.90;100.00
53546;BME280;39432;51.902;10.844;2023-02-04T10:42:01;101535.03;;;4.15;100.00
53546;BME280;39432;51.902;10.844;2023-02-04T10:44:33;101539.44;;;4.65;100.00
53546;BME280;39432;51.902;10.844;2023-02-04T10:47:14;101540.78;;;4.20;100.00
53546;BME280;39432;51.902;10.844;2023-02-04T10:49:52;101541.44;;;3.97;100.00
53546;BME280;39432;51.902;10.844;2023-02-04T10:52:25;101545.13;;;5.02;100.00
53546;BME280;39432;51.902;10.844;2023-02-04T10:54:59;101534.38;;;4.29;100.00
53546;BME280;39432;51.902;10.844;2023-02-04T10:57:34;101544.53;;;4.43;100.00
53546;BME280;39432;51.902;10.844;2023-02-04T11:00:15;101539.75;;;4.05;100.00
53546;BME280;39432;51.902;10.844;2023-02-04T11:02:48;101547.75;;;5.27;100.00
53546;BME280;39432;51.902;10.844;2023-02-04T11:05:20;101551.13;;;4.73;100.00
53546;BME280;39432;51.902;10.844;2023-02-04T11:07:50;101545.03;;;4.47;100.00
53546;BME280;39432;51.902;10.844;2023-02-04T11:10:21;101546.16;;;4.93;100.00
53546;BME280;39432;51.902;10.844;2023-02-04T11:13:05;101549.72;;;3.88;100.00
53546;BME280;39432;51.902;10.844;2023-02-04T11:15:38;101546.16;;;3.79;100.00
53546;BME280;39432;51.902;10.844;2023-02-04T11:18:10;101547.56;;;4.32;100.00
53546;BME280;39432;51.902;10.844;2023-02-04T11:20:40;101556.50;;;3.92;100.00
53546;BME280;39432;51.902;10.844;2023-02-04T11:23:28;101552.19;;;3.73;100.00
53546;BME280;39432;51.902;10.844;2023-02-04T11:26:04;101560.25;;;3.57;100.00
53546;BME280;39432;51.902;10.844;2023-02-04T11:28:48;101555.84;;;3.48;100.00
53546;BME280;39432;51.902;10.844;2023-02-04T11:31:38;101561.47;;;4.37;100.00
53546;BME280;39432;51.902;10.844;2023-02-04T11:34:26;101563.50;;;4.60;100.00
53546;BME280;39432;51.902;10.844;2023-02-04T11:37:09;101562.81;;;4.90;100.00
53546;BME280;39432;51.902;10.844;2023-02-04T11:39:42;101567.38;;;4.90;100.00
53546;BME280;39432;51.902;10.844;2023-02-04T11:42:21;101566.53;;;4.81;100.00
53546;BME280;39432;51.902;10.844;2023-02-04T11:44:57;101571.97;;;4.65;100.00
53546;BME280;39432;51.902;10.844;2023-02-04T11:47:34;101569.22;;;5.06;100.00
53546;BME280;39432;51.902;10.844;2023-02-04T11:50:12;101580.72;;;5.08;100.00
53546;BME280;39432;51.902;10.844;2023-02-04T11:52:43;101576.44;;;5.21;100.00
53546;BME280;39432;51.902;10.844;2023-02-04T11:55:12;101574.78;;;5.04;100.00
53546;BME280;39432;51.902;10.844;2023-02-04T11:57:43;101571.97;;;4.89;100.00
53546;BME280;39432;51.902;10.844;2023-02-04T12:00:18;101583.03;;;5.35;100.00
53546;BME280;39432;51.902;10.844;2023-02-04T12:02:49;101576.84;;;5.02;100.00
53546;BME280;39432;51.902;10.844;2023-02-04T12:05:20;101587.16;;;5.15;100.00
53546;BME280;39432;51.902;10.844;2023-02-04T12:07:49;101586.16;;;5.08;100.00
53546;BME280;39432;51.902;10.844;2023-02-04T12:10:23;101579.22;;;4.89;100.00
53546;BME280;39432;51.902;10.844;2023-02-04T12:12:55;101576.69;;;4.95;100.00
53546;BME280;39432;51.902;10.844;2023-02-04T12:15:33;101578.28;;;5.37;100.00
53546;BME280;39432;51.902;10.844;2023-02-04T12:18:05;101574.66;;;4.97;100.00
53546;BME280;39432;51.902;10.844;2023-02-04T12:20:35;101584.50;;;4.90;100.00
53546;BME280;39432;51.902;10.844;2023-02-04T12:23:05;101581.75;;;4.98;100.00
53546;BME280;39432;51.902;10.844;2023-02-04T12:25:35;101578.91;;;5.47;100.00
53546;BME280;39432;51.902;10.844;2023-02-04T12:28:04;101579.06;;;5.07;100.00
53546;BME280;39432;51.902;10.844;2023-02-04T12:30:36;101583.97;;;4.87;100.00
53546;BME280;39432;51.902;10.844;2023-02-04T12:33:06;101588.91;;;4.75;100.00
53546;BME280;39432;51.902;10.844;2023-02-04T12:35:36;101592.28;;;5.01;100.00
53546;BME280;39432;51.902;10.844;2023-02-04T12:38:06;101587.00;;;5.08;100.00
53546;BME280;39432;51.902;10.844;2023-02-04T12:40:36;101588.91;;;4.91;100.00
53546;BME280;39432;51.902;10.844;2023-02-04T12:43:06;101592.63;;;4.66;100.00
53546;BME280;39432;51.902;10.844;2023-02-04T12:45:38;101592.66;;;4.74;100.00
53546;BME280;39432;51.902;10.844;2023-02-04T12:48:11;101595.44;;;5.29;100.00
53546;BME280;39432;51.902;10.844;2023-02-04T12:50:41;101594.97;;;5.10;100.00
53546;BME280;39432;51.902;10.844;2023-02-04T12:53:10;101585.69;;;5.91;99.72
53546;BME280;39432;51.902;10.844;2023-02-04T12:55:40;101589.56;;;5.01;99.48
53546;BME280;39432;51.902;10.844;2023-02-04T12:58:10;101599.66;;;5.32;99.81
53546;BME280;39432;51.902;10.844;2023-02-04T13:00:42;101599.38;;;5.02;98.59